Moosomin, Canada
Current Conditions -  °F | °C
As of 8:00 PM on Friday 24 Oct 2014 (Local Time) from CYBR Reporting Station
Few Clouds Few Clouds  
Wind Chill: 10°   Ceiling: Unl
Heat Index: 10°   Visibility: 15mi
Dew Point:   Wind: 18mph
Humidity: 50%   Direction: 280°W
Pressure: 29.84"   Gusts: 29mph
Location:  50.15°N, 101.67°W
Report Text: CYBR 250200Z 28016G25KT 15SM FEW250 10/M00 A2984 RMK CI2 SLP116
Loading
Personal Weather Stations






























Interactive Weather Map
Tropical Storm Tracking
New forecast layout! Learn more

10-Day Weather Forecast

Advertisements
Track Severe Weather on mobile